Time;durP1;ratioP1;P1;durP2;ratioP2;P2;SDS_P1;SDS_P2;PMS_P1;PMS_P2;Temp;Humidity;BMP_temperature;BMP_pressure;BME280_temperature;BME280_humidity;BME280_pressure;Samples;Min_cycle;Max_cycle;Signal;HPM_P1;HPM_P2
2024/04/13 00:03:53;;;;;;;20.08;10.85;;;;;;;14.85;100.00;98309.59;5084459;28;20576;-74
2024/04/13 00:06:45;;;;;;;23.77;11.50;;;;;;;14.76;100.00;98307.50;5084553;28;20035;-74
2024/04/13 00:09:58;;;;;;;23.80;11.60;;;;;;;14.73;100.00;98299.63;5086416;28;20123;-75
2024/04/13 00:12:36;;;;;;;21.02;11.90;;;;;;;14.69;100.00;98300.78;5087750;28;20081;-74
2024/04/13 00:15:50;;;;;;;17.65;10.73;;;;;;;14.59;100.00;98309.47;5088007;28;20040;-74
2024/04/13 00:22:10;;;;;;;;;;;;;;;;;;;;;
2024/04/13 00:32:19;;;;;;;;;;;;;;;;;;;;;
2024/04/13 00:35:05;;;;;;;16.77;10.65;;;;;;;14.74;100.00;98299.50;5048405;28;20040;-74
2024/04/13 00:38:13;;;;;;;21.35;11.25;;;;;;;14.75;100.00;98303.06;5047659;28;20578;-75
2024/04/13 00:44:33;;;;;;;21.02;11.90;;;;;;;14.81;100.00;98302.66;5044733;28;20040;-74
2024/04/13 00:47:32;;;;;;;20.73;10.32;;;;;;;14.91;100.00;98301.09;5090414;28;20026;-74
2024/04/13 00:50:13;;;;;;;;;;;;;;;;;;;;;
2024/04/13 00:53:17;;;;;;;23.60;10.63;;;;;;;14.83;100.00;98303.41;5074475;28;20034;-75
2024/04/13 00:56:05;;;;;;;20.75;10.52;;;;;;;14.75;100.00;98292.28;5075432;28;20042;-74
2024/04/13 00:59:05;;;;;;;;;;;;;;;;;;;;;
2024/04/13 01:05:04;;;;;;;;;;;;;;;;;;;;;
2024/04/13 01:11:15;;;;;;;17.23;10.88;;;;;;;14.99;100.00;98296.03;5027754;28;20064;-75
2024/04/13 01:20:43;;;;;;;;;;;;;;;;;;;;;
2024/04/13 01:27:11;;;;;;;20.88;10.05;;;;;;;14.87;100.00;98278.88;4992040;28;20132;-75
2024/04/13 01:30:29;;;;;;;16.83;9.75;;;;;;;14.83;100.00;98285.41;5066344;28;20570;-74
2024/04/13 01:33:22;;;;;;;;;;;;;;;;;;;;;
2024/04/13 01:36:18;;;;;;;16.83;10.20;;;;;;;14.72;100.00;98274.53;5074730;28;20563;-75
2024/04/13 01:39:15;;;;;;;15.75;10.68;;;;;;;14.79;100.00;98274.97;5093713;28;20024;-74
2024/04/13 01:42:46;;;;;;;;;;;;;;;;;;;;;
2024/04/13 01:46:19;;;;;;;18.20;10.38;;;;;;;14.61;100.00;98274.38;5075840;28;20039;-75
2024/04/13 01:49:07;;;;;;;;;;;;;;;;;;;;;
2024/04/13 01:51:48;;;;;;;;;;;;;;;;;;;;;
2024/04/13 01:54:25;;;;;;;16.20;9.90;;;;;;;14.55;100.00;98267.56;5076716;28;20363;-74
2024/04/13 01:57:22;;;;;;;17.73;10.23;;;;;;;14.54;100.00;98271.22;5093284;28;20011;-74
2024/04/13 02:00:26;;;;;;;;;;;;;;;;;;;;;
2024/04/13 02:03:24;;;;;;;16.35;10.05;;;;;;;14.50;100.00;98256.22;5089389;28;20024;-74
2024/04/13 02:09:48;;;;;;;;;;;;;;;;;;;;;
2024/04/13 02:13:09;;;;;;;23.02;13.48;;;;;;;14.49;100.00;98256.31;5077034;28;20042;-74
2024/04/13 02:19:13;;;;;;;17.83;10.80;;;;;;;14.42;100.00;98258.59;5067099;28;20043;-75
2024/04/13 02:22:34;;;;;;;;;;;;;;;;;;;;;
2024/04/13 02:25:24;;;;;;;;;;;;;;;;;;;;;
2024/04/13 02:28:24;;;;;;;15.77;10.07;;;;;;;14.16;100.00;98248.63;5076883;28;20034;-75
2024/04/13 02:31:37;;;;;;;20.02;10.10;;;;;;;14.05;100.00;98260.09;5074199;28;20085;-75
2024/04/13 02:37:31;;;;;;;17.77;10.82;;;;;;;13.83;100.00;98250.78;5084778;28;20082;-74
2024/04/13 02:43:35;;;;;;;;;;;;;;;;;;;;;
2024/04/13 02:47:03;;;;;;;;;;;;;;;;;;;;;
2024/04/13 02:50:03;;;;;;;21.23;12.75;;;;;;;13.69;100.00;98261.56;5071665;28;20384;-75
2024/04/13 02:53:14;;;;;;;19.13;12.23;;;;;;;13.66;100.00;98264.44;5048347;28;20032;-74
2024/04/13 02:56:33;;;;;;;16.92;11.82;;;;;;;13.49;100.00;98261.00;5071719;28;20389;-74
2024/04/13 02:59:24;;;;;;;;;;;;;;;;;;;;;
2024/04/13 03:02:06;;;;;;;23.50;11.70;;;;;;;13.44;100.00;98264.94;5071014;28;20024;-73
2024/04/13 03:04:52;;;;;;;;;;;;;;;;;;;;;
2024/04/13 03:18:30;;;;;;;;;;;;;;;;;;;;;
2024/04/13 03:25:03;;;;;;;;;;;;;;;;;;;;;
2024/04/13 03:27:56;;;;;;;;;;;;;;;13.44;100.00;98295.31;5064736;28;20037;-73
2024/04/13 03:34:02;;;;;;;;;;;;;;;;;;;;;
2024/04/13 03:36:44;;;;;;;19.73;11.55;;;;;;;13.38;100.00;98309.13;5000301;28;20034;-73
2024/04/13 03:39:48;;;;;;;20.80;11.85;;;;;;;13.37;100.00;98311.94;4986880;28;20038;-76
2024/04/13 03:45:45;;;;;;;;;;;;;;;;;;;;;
2024/04/13 03:48:40;;;;;;;19.85;12.35;;;;;;;13.30;100.00;98310.56;5075960;28;20023;-74
2024/04/13 03:54:12;;;;;;;20.38;11.88;;;;;;;13.28;100.00;98320.56;5075742;28;20027;-75
2024/04/13 03:57:16;;;;;;;;;;;;;;;;;;;;;
2024/04/13 04:03:55;;;;;;;24.67;12.27;;;;;;;13.12;100.00;98328.66;5084237;28;20055;-75
2024/04/13 04:10:01;;;;;;;;;;;;;;;;;;;;;
2024/04/13 04:13:26;;;;;;;15.07;10.50;;;;;;;13.35;100.00;98325.44;5087939;28;20477;-75
2024/04/13 04:19:31;;;;;;;;;;;;;;;;;;;;;
2024/04/13 04:22:36;;;;;;;;;;;;;;;;;;;;;
2024/04/13 04:25:29;;;;;;;18.05;10.00;;;;;;;13.82;100.00;98329.72;5088226;28;20030;-74
2024/04/13 04:28:17;;;;;;;23.73;11.07;;;;;;;13.88;100.00;98335.59;5053831;28;20411;-74
2024/04/13 04:30:53;;;;;;;16.95;11.15;;;;;;;13.93;100.00;98327.25;5087468;28;20035;-75
2024/04/13 04:33:52;;;;;;;20.55;11.35;;;;;;;13.99;100.00;98332.25;5085378;28;20036;-74
2024/04/13 04:36:42;;;;;;;20.52;10.77;;;;;;;14.03;100.00;98333.75;5087770;28;20035;-74
2024/04/13 04:39:37;;;;;;;23.58;10.95;;;;;;;14.10;100.00;98333.28;5088104;28;20153;-74
2024/04/13 04:42:51;;;;;;;25.63;13.85;;;;;;;14.24;100.00;98331.56;5064942;28;20052;-74
2024/04/13 04:46:27;;;;;;;;;;;;;;;;;;;;;
2024/04/13 04:52:34;;;;;;;;;;;;;;;;;;;;;
2024/04/13 04:55:42;;;;;;;23.65;12.95;;;;;;;14.74;100.00;98339.03;5091999;28;20046;-74
2024/04/13 04:59:02;;;;;;;;;;;;;;;;;;;;;
2024/04/13 05:05:02;;;;;;;21.83;13.20;;;;;;;15.11;100.00;98335.63;5078640;28;20490;-74
2024/04/13 05:08:22;;;;;;;22.75;13.75;;;;;;;15.39;100.00;98330.09;5073287;28;20027;-74
2024/04/13 05:11:07;;;;;;;;;;;;;;;;;;;;;
2024/04/13 05:14:38;;;;;;;;;;;;;;;;;;;;;
2024/04/13 05:17:47;;;;;;;;;;;;;;;;;;;;;
2024/04/13 05:30:38;;;;;;;18.85;12.00;;;;;;;16.77;100.00;98339.94;5088133;28;20488;-74
2024/04/13 05:33:35;;;;;;;20.60;11.32;;;;;;;17.24;100.00;98322.84;5040067;28;20506;-75
2024/04/13 05:36:47;;;;;;;;;;;;;;;;;;;;;
2024/04/13 05:39:24;;;;;;;22.15;11.88;;;;;;;19.96;100.00;98309.41;5091714;28;20032;-74
2024/04/13 05:42:02;;;;;;;22.67;11.43;;;;;;;20.88;100.00;98302.91;5088333;28;20047;-74
2024/04/13 05:44:58;;;;;;;18.67;11.23;;;;;;;22.07;100.00;98298.84;5069294;28;20508;-74
2024/04/13 05:48:16;;;;;;;22.55;11.32;;;;;;;22.94;97.37;98299.34;5085656;28;20043;-75
2024/04/13 05:57:44;;;;;;;;;;;;;;;;;;;;;
2024/04/13 06:00:42;;;;;;;20.50;10.80;;;;;;;24.95;72.67;98282.72;5074272;28;20039;-75
2024/04/13 06:07:24;;;;;;;21.23;12.33;;;;;;;26.02;66.27;98287.09;5074752;28;20046;-75
2024/04/13 06:10:46;;;;;;;20.35;11.57;;;;;;;26.60;63.53;98277.69;5073509;28;20086;-76
2024/04/13 06:13:43;;;;;;;21.00;11.63;;;;;;;27.09;60.31;98276.44;5071891;28;20032;-76
2024/04/13 06:16:33;;;;;;;;;;;;;;;;;;;;;
2024/04/13 06:19:18;;;;;;;24.05;13.15;;;;;;;27.36;55.95;98275.94;5074019;28;20133;-76
2024/04/13 06:22:07;;;;;;;29.55;17.13;;;;;;;26.23;59.94;98284.69;5072302;28;20023;-76
2024/04/13 06:25:20;;;;;;;;;;;;;;;;;;;;;
2024/04/13 06:28:18;;;;;;;37.40;20.98;;;;;;;23.39;84.63;98311.09;5076783;28;20030;-75
2024/04/13 06:31:08;;;;;;;;;;;;;;;;;;;;;
2024/04/13 06:34:26;;;;;;;20.85;12.35;;;;;;;24.05;86.93;98306.00;5089419;28;20032;-76
2024/04/13 06:37:17;;;;;;;19.98;12.98;;;;;;;26.18;74.67;98308.19;5060267;28;20047;-76
2024/04/13 06:43:46;;;;;;;24.23;11.45;;;;;;;26.58;65.67;98299.81;5048414;28;20245;-76
2024/04/13 06:47:28;;;;;;;21.08;10.70;;;;;;;26.37;64.73;98299.56;5056520;28;20131;-76
2024/04/13 06:50:19;;;;;;;17.35;11.85;;;;;;;24.47;79.60;98306.09;5049358;28;20115;-76
2024/04/13 06:53:23;;;;;;;22.50;13.63;;;;;;;23.60;92.87;98324.41;5069187;28;20064;-75
2024/04/13 07:00:00;;;;;;;20.85;11.63;;;;;;;23.20;100.00;98338.50;5068117;28;20102;-76
2024/04/13 07:06:08;;;;;;;23.95;12.82;;;;;;;25.46;80.97;98322.69;5012627;28;20127;-75
2024/04/13 07:09:04;;;;;;;16.77;10.25;;;;;;;27.15;68.21;98314.19;5067417;28;20027;-76
2024/04/13 07:12:16;;;;;;;45.60;24.80;;;;;;;26.55;70.35;98321.31;5061931;28;20032;-75
2024/04/13 07:15:21;;;;;;;;;;;;;;;;;;;;;
2024/04/13 07:18:08;;;;;;;17.80;9.88;;;;;;;26.51;69.75;98314.44;5068130;28;20038;-76
2024/04/13 07:21:17;;;;;;;31.23;10.63;;;;;;;27.81;62.72;98310.00;5067968;28;20047;-76
2024/04/13 07:23:50;;;;;;;24.05;9.65;;;;;;;28.19;58.94;98292.44;5067946;28;20024;-75
2024/04/13 07:26:48;;;;;;;13.82;9.20;;;;;;;28.90;56.24;98299.22;5068351;28;20091;-75
2024/04/13 07:29:54;;;;;;;15.75;9.10;;;;;;;29.66;52.77;98286.75;5056994;28;20043;-75
2024/04/13 07:36:09;;;;;;;15.90;9.30;;;;;;;31.05;47.59;98282.09;5076768;28;20110;-75
2024/04/13 07:48:57;;;;;;;37.53;24.58;;;;;;;32.38;42.25;98265.50;5094320;27;20108;-77
2024/04/13 07:58:12;;;;;;;16.20;11.10;;;;;;;34.44;37.36;98243.69;5109820;28;20464;-76
2024/04/13 08:05:10;;;;;;;;;;;;;;;;;;;;;
2024/04/13 08:11:10;;;;;;;8.18;5.20;;;;;;;34.33;36.47;98232.22;5096842;28;20120;-76
2024/04/13 08:14:08;;;;;;;6.95;4.45;;;;;;;34.29;36.05;98233.78;5093818;28;20055;-76
2024/04/13 08:16:53;;;;;;;8.60;5.65;;;;;;;34.74;35.54;98228.81;5109011;28;20165;-77
2024/04/13 08:22:38;;;;;;;12.05;4.40;;;;;;;35.43;34.57;98227.53;5099958;28;20126;-75
2024/04/13 08:31:50;;;;;;;15.70;8.98;;;;;;;34.94;35.26;98223.03;5110920;28;20046;-75
2024/04/13 08:34:54;;;;;;;8.15;4.82;;;;;;;33.07;36.61;98235.25;5092645;28;20038;-77
2024/04/13 08:37:30;;;;;;;6.60;4.68;;;;;;;33.51;36.81;98228.81;5110906;28;20027;-77
2024/04/13 08:43:37;;;;;;;12.43;4.50;;;;;;;35.46;34.38;98207.56;5109981;28;20051;-77
2024/04/13 08:46:30;;;;;;;10.40;7.28;;;;;;;36.13;33.41;98211.84;5092336;28;20049;-77
2024/04/13 08:49:36;;;;;;;;;;;;;;;;;;;;;
2024/04/13 08:52:47;;;;;;;;;;;;;;;;;;;;;
2024/04/13 08:55:41;;;;;;;;;;;;;;;;;;;;;
2024/04/13 08:58:37;;;;;;;13.60;5.13;;;;;;;35.42;34.17;98206.31;5115106;28;20035;-78
2024/04/13 09:02:06;;;;;;;;;;;;;;;;;;;;;
2024/04/13 09:05:27;;;;;;;13.35;4.28;;;;;;;33.58;35.36;98208.28;5131606;28;20026;-76
2024/04/13 09:08:06;;;;;;;13.10;4.97;;;;;;;34.57;35.10;98201.84;5087932;28;20031;-77
2024/04/13 09:11:41;;;;;;;;;;;;;;;;;;;;;
2024/04/13 09:14:27;;;;;;;10.23;4.20;;;;;;;35.19;33.32;98192.34;5062016;28;20046;-76
2024/04/13 09:20:49;;;;;;;11.50;4.40;;;;;;;36.82;31.60;98183.09;5079013;28;20036;-76
2024/04/13 09:24:09;;;;;;;11.90;3.97;;;;;;;36.70;30.98;98170.25;5087907;28;20043;-81
2024/04/13 09:27:08;;;;;;;9.23;4.28;;;;;;;35.59;32.56;98178.69;5087853;28;20538;-78
2024/04/13 09:30:08;;;;;;;;;;;;;;;;;;;;;
2024/04/13 09:37:00;;;;;;;;;;;;;;;;;;;;;
2024/04/13 09:40:14;;;;;;;;;;;;;;;;;;;;;
2024/04/13 09:46:40;;;;;;;5.05;4.43;;;;;;;35.99;31.34;98160.22;5092812;28;20051;-79
2024/04/13 09:50:03;;;;;;;12.18;4.25;;;;;;;35.93;31.96;98163.13;5095625;28;20061;-76
2024/04/13 09:53:38;;;;;;;9.15;3.85;;;;;;;37.06;30.77;98160.69;5113741;28;20039;-78
2024/04/13 09:56:58;;;;;;;;;;;;;;;;;;;;;
2024/04/13 10:00:01;;;;;;;;;;;;;;;;;;;;;
2024/04/13 10:03:08;;;;;;;;;;;;;;;;;;;;;
2024/04/13 10:06:17;;;;;;;15.45;4.97;;;;;;;37.20;30.78;98160.13;5114004;28;20038;-78
2024/04/13 10:16:16;;;;;;;;;;;;;;;;;;;;;
2024/04/13 10:19:01;;;;;;;8.18;3.85;;;;;;;37.48;30.21;98145.34;5071137;28;20051;-76
2024/04/13 10:22:07;;;;;;;8.75;3.95;;;;;;;37.64;29.85;98146.44;5103665;27;20039;-77
2024/04/13 10:28:28;;;;;;;13.80;4.20;;;;;;;39.18;28.31;98141.72;5042164;27;20531;-77
2024/04/13 10:38:17;;;;;;;15.00;4.90;;;;;;;33.19;34.27;98133.66;5068211;28;20174;-77
2024/04/13 10:41:28;;;;;;;9.93;4.50;;;;;;;32.26;36.08;98151.75;5066557;28;20051;-76
2024/04/13 10:44:13;;;;;;;7.38;4.22;;;;;;;34.43;33.49;98133.56;5061806;28;20125;-76
2024/04/13 10:50:43;;;;;;;7.15;3.95;;;;;;;37.26;30.21;98110.81;5028097;28;20537;-77
2024/04/13 10:53:37;;;;;;;;;;;;;;;;;;;;;
2024/04/13 10:56:35;;;;;;;15.35;4.07;;;;;;;37.54;29.54;98098.78;5010201;28;20037;-77
2024/04/13 11:06:18;;;;;;;8.63;4.82;;;;;;;37.27;30.62;98096.63;5009842;28;20546;-79
2024/04/13 11:09:00;;;;;;;5.22;3.55;;;;;;;37.15;30.60;98103.38;5015923;28;20041;-78
2024/04/13 11:19:13;;;;;;;18.10;4.97;;;;;;;38.35;29.31;98087.81;5019199;28;20125;-77
2024/04/13 11:22:26;;;;;;;22.75;4.40;;;;;;;35.97;31.63;98086.28;5063685;28;20044;-77
2024/04/13 11:25:40;;;;;;;10.20;4.57;;;;;;;35.23;32.15;98085.00;5071354;28;20016;-77
2024/04/13 11:28:49;;;;;;;9.70;4.70;;;;;;;35.83;31.65;98086.56;5070709;28;20032;-78
2024/04/13 11:31:39;;;;;;;6.63;3.85;;;;;;;36.72;30.25;98076.00;5009691;28;20098;-78
2024/04/13 11:34:55;;;;;;;;;;;;;;;;;;;;;
2024/04/13 11:37:57;;;;;;;;;;;;;;;;;;;;;
2024/04/13 11:41:12;;;;;;;7.68;3.50;;;;;;;37.43;28.80;98058.66;5036252;28;20058;-79
2024/04/13 11:51:31;;;;;;;5.40;3.25;;;;;;;38.39;27.37;98029.41;5084616;28;20491;-80
2024/04/13 11:54:41;;;;;;;26.33;3.80;;;;;;;38.17;28.18;98037.75;5091301;28;20036;-81
2024/04/13 11:57:28;;;;;;;15.63;4.00;;;;;;;38.06;28.05;98037.84;5109831;28;20402;-74
2024/04/13 12:00:08;;;;;;;7.28;3.42;;;;;;;37.66;27.99;98033.34;5111073;28;20031;-76
2024/04/13 12:02:42;;;;;;;11.53;4.43;;;;;;;37.74;28.31;98023.69;5110950;28;20066;-75
2024/04/13 12:05:54;;;;;;;;;;;;;;;;;;;;;
2024/04/13 12:09:03;;;;;;;8.23;3.45;;;;;;;38.48;27.44;98020.28;5110597;28;20027;-76
2024/04/13 12:17:45;;;;;;;10.13;3.40;;;;;;;36.55;27.75;98000.66;5105269;28;20043;-74
2024/04/13 12:20:42;;;;;;;14.45;3.92;;;;;;;36.67;27.51;98001.44;5092530;28;20512;-75
2024/04/13 12:27:18;;;;;;;;;;;;;;;;;;;;;
2024/04/13 12:30:04;;;;;;;;;;;;;;;;;;;;;
2024/04/13 12:32:54;;;;;;;15.88;3.33;;;;;;;38.04;26.66;97986.97;5096925;28;20410;-74
2024/04/13 12:38:55;;;;;;;7.97;2.70;;;;;;;37.11;26.72;97984.94;5090496;28;20530;-77
2024/04/13 12:42:02;;;;;;;9.70;3.08;;;;;;;36.39;27.88;97979.13;5091392;28;20024;-86
2024/04/13 12:48:55;;;;;;;;;;;;;;;;;;;;;
2024/04/13 12:51:47;;;;;;;11.95;3.50;;;;;;;36.43;28.92;97977.50;5016192;28;20535;-78
2024/04/13 12:55:07;;;;;;;7.32;3.10;;;;;;;36.59;28.11;97967.53;5017929;28;20041;-78
2024/04/13 12:57:47;;;;;;;14.25;3.47;;;;;;;36.53;28.12;97963.81;5004937;28;20041;-77
2024/04/13 13:04:26;;;;;;;19.08;3.35;;;;;;;36.19;28.77;97962.84;5059185;28;20044;-78
2024/04/13 13:07:56;;;;;;;;;;;;;;;;;;;;;
2024/04/13 13:11:01;;;;;;;11.43;4.15;;;;;;;35.50;29.27;97955.41;5072599;28;20025;-78
2024/04/13 13:13:47;;;;;;;7.72;3.40;;;;;;;35.39;29.22;97959.06;5069173;28;20547;-88
2024/04/13 13:16:24;;;;;;;8.32;3.05;;;;;;;34.58;30.46;97954.19;5080046;28;20036;-90
2024/04/13 13:18:57;;;;;;;15.55;3.85;;;;;;;35.06;29.80;97951.28;5076529;28;20086;-89
2024/04/13 13:22:24;;;;;;;17.23;5.70;;;;;;;34.68;30.45;97954.50;5075699;28;20090;-90
2024/04/13 13:25:41;;;;;;;27.58;10.32;;;;;;;35.12;30.23;97957.84;5051989;28;20094;-88
2024/04/13 13:28:28;;;;;;;21.42;5.70;;;;;;;35.23;30.10;97963.41;5020396;28;20034;-83
2024/04/13 13:31:20;;;;;;;;;;;;;;;;;;;;;
2024/04/13 13:41:14;;;;;;;;;;;;;;;;;;;;;
2024/04/13 13:44:32;;;;;;;;;;;;;;;;;;;;;
2024/04/13 13:51:04;;;;;;;12.80;3.60;;;;;;;33.72;30.17;97926.72;5037595;28;20044;-81
2024/04/13 13:54:25;;;;;;;;;;;;;;;;;;;;;
2024/04/13 13:57:04;;;;;;;8.63;4.38;;;;;;;33.32;30.43;97942.09;5073195;28;20032;-77
2024/04/13 14:00:09;;;;;;;8.18;4.05;;;;;;;33.75;30.66;97934.59;5055452;28;20040;-74
2024/04/13 14:03:25;;;;;;;14.07;3.75;;;;;;;33.67;30.98;97934.91;5055892;28;20032;-77
2024/04/13 14:06:44;;;;;;;10.50;4.03;;;;;;;33.15;31.03;97930.78;5072778;28;20460;-77
2024/04/13 14:13:04;;;;;;;13.88;3.92;;;;;;;31.83;32.84;97935.50;5065052;28;20044;-75
2024/04/13 14:16:16;;;;;;;8.63;3.80;;;;;;;31.56;33.48;97931.97;5080412;28;20043;-75
2024/04/13 14:19:12;;;;;;;;;;;;;;;;;;;;;
2024/04/13 14:21:57;;;;;;;14.25;6.95;;;;;;;30.64;35.37;97929.28;4990634;28;20059;-76
2024/04/13 14:25:10;;;;;;;18.23;4.60;;;;;;;30.04;36.16;97929.41;4991450;28;20534;-75
2024/04/13 14:31:31;;;;;;;5.43;3.92;;;;;;;28.50;38.13;97926.09;5004936;28;20096;-75
2024/04/13 14:41:05;;;;;;;8.75;3.65;;;;;;;27.73;39.74;97916.78;5031476;28;20048;-74
2024/04/13 14:43:51;;;;;;;11.77;4.32;;;;;;;27.57;40.87;97911.50;5036090;28;20045;-76
2024/04/13 14:47:10;;;;;;;8.52;4.82;;;;;;;27.41;40.25;97907.91;5055903;28;20048;-76
2024/04/13 14:50:08;;;;;;;;;;;;;;;;;;;;;
2024/04/13 14:53:00;;;;;;;14.75;9.40;;;;;;;27.01;41.47;97897.44;5070251;28;20058;-80
2024/04/13 14:56:01;;;;;;;;;;;;;;;;;;;;;
2024/04/13 14:58:55;;;;;;;10.93;3.85;;;;;;;26.75;42.37;97906.13;5061622;28;20080;-76
2024/04/13 15:01:31;;;;;;;12.60;3.70;;;;;;;26.55;42.48;97906.84;5070184;28;20095;-77
2024/04/13 15:04:49;;;;;;;8.40;4.07;;;;;;;26.39;43.33;97905.94;5058082;28;20461;-78
2024/04/13 15:07:36;;;;;;;12.88;3.92;;;;;;;26.31;43.66;97903.28;5091880;28;20036;-77
2024/04/13 15:13:52;;;;;;;7.05;4.15;;;;;;;25.85;44.82;97913.38;5081866;28;20380;-79
2024/04/13 15:20:03;;;;;;;7.40;4.55;;;;;;;25.56;45.40;97913.22;5080699;28;20047;-78
2024/04/13 15:26:50;;;;;;;;;;;;;;;;;;;;;
2024/04/13 15:30:02;;;;;;;15.48;4.22;;;;;;;25.67;45.73;97909.22;5075260;28;20047;-77
2024/04/13 15:33:18;;;;;;;9.20;4.32;;;;;;;25.68;46.31;97914.53;5084552;28;20063;-75
2024/04/13 15:39:14;;;;;;;12.45;5.03;;;;;;;25.57;45.81;97919.53;5091422;28;20024;-75
2024/04/13 15:42:07;;;;;;;;;;;;;;;;;;;;;
2024/04/13 15:45:02;;;;;;;6.47;4.05;;;;;;;25.29;46.58;97914.50;5091546;28;20028;-76
2024/04/13 15:50:54;;;;;;;10.73;4.07;;;;;;;25.00;47.81;97916.19;5076842;28;20083;-75
2024/04/13 15:53:58;;;;;;;;;;;;;;;;;;;;;
2024/04/13 15:56:40;;;;;;;14.15;4.50;;;;;;;24.94;48.45;97919.63;5091407;28;20032;-75
2024/04/13 15:59:59;;;;;;;12.38;3.55;;;;;;;24.88;49.43;97928.53;5091069;28;20116;-75
2024/04/13 16:02:50;;;;;;;12.85;4.40;;;;;;;24.79;50.32;97935.88;5070303;28;20047;-76
2024/04/13 16:11:58;;;;;;;;;;;;;;;;;;;;;
2024/04/13 16:15:14;;;;;;;9.77;4.40;;;;;;;24.39;52.40;97933.22;5074934;28;20032;-76
2024/04/13 16:18:39;;;;;;;;;;;;;;;;;;;;;
2024/04/13 16:22:04;;;;;;;10.65;4.32;;;;;;;24.24;55.78;97944.81;5088580;28;20036;-75
2024/04/13 16:24:36;;;;;;;12.38;4.57;;;;;;;24.12;57.00;97942.59;5090351;28;20081;-76
2024/04/13 16:28:04;;;;;;;10.75;4.22;;;;;;;24.05;57.07;97957.94;5073113;28;20484;-76
2024/04/13 16:31:00;;;;;;;16.15;4.30;;;;;;;23.94;58.63;97950.91;5090423;28;20173;-76
2024/04/13 16:33:42;;;;;;;7.35;3.78;;;;;;;23.91;57.81;97950.38;5084165;28;20051;-78
2024/04/13 16:36:43;;;;;;;;;;;;;;;;;;;;;
2024/04/13 16:39:56;;;;;;;7.63;4.27;;;;;;;23.63;60.06;97958.88;5090879;28;20038;-75
2024/04/13 16:42:42;;;;;;;9.18;3.63;;;;;;;23.60;61.17;97963.81;5077985;28;20811;-79
2024/04/13 16:45:43;;;;;;;;;;;;;;;;;;;;;
2024/04/13 16:48:39;;;;;;;;;;;;;;;;;;;;;
2024/04/13 16:51:22;;;;;;;28.38;8.55;;;;;;;23.37;64.63;97976.34;5074581;28;20032;-76
2024/04/13 16:54:32;;;;;;;23.23;9.02;;;;;;;23.31;64.93;97986.03;5093477;28;20028;-76
2024/04/13 16:57:23;;;;;;;18.58;6.57;;;;;;;23.25;66.81;97991.31;5094223;28;20043;-75
2024/04/13 17:03:56;;;;;;;10.65;5.32;;;;;;;23.20;69.49;97998.09;5094790;28;20034;-76
2024/04/13 17:10:08;;;;;;;9.02;4.75;;;;;;;22.94;72.47;98013.66;4982284;28;20107;-75
2024/04/13 17:13:10;;;;;;;;;;;;;;;;;;;;;
2024/04/13 17:16:19;;;;;;;10.90;5.13;;;;;;;22.89;75.02;98029.63;5087389;28;20044;-75
2024/04/13 17:22:21;;;;;;;;;;;;;;;;;;;;;
2024/04/13 17:25:44;;;;;;;16.27;6.38;;;;;;;22.78;79.22;98054.44;5090253;28;20056;-76
2024/04/13 17:28:48;;;;;;;14.27;6.43;;;;;;;22.81;79.28;98053.28;5087302;28;20048;-78
2024/04/13 17:32:02;;;;;;;11.38;5.45;;;;;;;22.75;78.21;98056.63;5047886;28;20043;-77
2024/04/13 17:35:09;;;;;;;;;;;;;;;;;;;;;
2024/04/13 17:40:42;;;;;;;27.25;6.80;;;;;;;22.47;89.46;98066.75;5064621;28;20446;-75
2024/04/13 17:43:23;;;;;;;17.98;6.20;;;;;;;22.29;92.73;98079.53;5093594;28;20035;-76
2024/04/13 17:58:39;;;;;;;23.30;9.32;;;;;;;21.91;98.52;98110.63;5092971;28;20046;-77
2024/04/13 18:01:57;;;;;;;20.55;8.25;;;;;;;21.81;100.00;98117.97;5074157;28;20065;-75
2024/04/13 18:04:57;;;;;;;20.75;8.98;;;;;;;21.74;100.00;98116.84;5092626;28;20040;-75
2024/04/13 18:11:53;;;;;;;;;;;;;;;;;;;;;
2024/04/13 18:15:37;;;;;;;15.82;8.40;;;;;;;21.65;100.00;98132.22;4991392;28;20486;-77
2024/04/13 18:18:33;;;;;;;15.95;7.20;;;;;;;21.41;100.00;98134.63;4971504;28;20043;-76
2024/04/13 18:21:31;;;;;;;;;;;;;;;21.40;100.00;98149.22;5086124;28;20085;-76
2024/04/13 18:31:08;;;;;;;11.57;6.57;;;;;;;20.94;100.00;98148.13;5047832;28;20487;-75
2024/04/13 18:34:10;;;;;;;14.43;6.20;;;;;;;20.80;100.00;98150.41;5070715;28;20032;-72
2024/04/13 18:37:28;;;;;;;15.25;6.45;;;;;;;20.65;100.00;98160.88;5072146;28;20083;-75
2024/04/13 18:40:36;;;;;;;15.07;7.35;;;;;;;20.42;100.00;98160.31;5071678;28;20488;-77
2024/04/13 18:43:20;;;;;;;14.32;6.40;;;;;;;20.31;100.00;98162.25;5052824;28;20055;-74
2024/04/13 18:46:34;;;;;;;13.32;6.30;;;;;;;20.24;100.00;98166.53;5074005;28;20084;-74
2024/04/13 18:49:13;;;;;;;15.48;6.43;;;;;;;20.17;100.00;98165.34;5076917;28;20055;-75
2024/04/13 18:52:38;;;;;;;;;;;;;;;;;;;;;
2024/04/13 18:58:57;;;;;;;15.70;6.70;;;;;;;19.76;100.00;98166.38;5072868;28;20129;-75
2024/04/13 19:14:49;;;;;;;17.20;6.40;;;;;;;19.21;100.00;98189.31;5023684;28;20045;-76
2024/04/13 19:17:51;;;;;;;;;;;;;;;;;;;;;
2024/04/13 19:24:35;;;;;;;13.55;6.10;;;;;;;18.84;100.00;98187.06;5038599;28;20094;-74
2024/04/13 19:28:03;;;;;;;;;;;;;;;;;;;;;
2024/04/13 19:34:41;;;;;;;15.82;6.72;;;;;;;18.59;100.00;98190.13;5002793;28;20537;-74
2024/04/13 19:37:41;;;;;;;13.82;5.93;;;;;;;18.53;100.00;98184.34;5017256;28;20064;-74
2024/04/13 19:40:59;;;;;;;28.55;6.75;;;;;;;18.48;100.00;98197.41;4984736;28;20054;-74
2024/04/13 19:43:57;;;;;;;19.58;6.63;;;;;;;18.37;100.00;98191.03;5012753;28;20106;-74
2024/04/13 19:50:29;;;;;;;17.85;6.60;;;;;;;18.27;100.00;98205.47;5025649;28;20072;-74
2024/04/13 19:53:35;;;;;;;61.75;32.85;;;;;;;18.16;100.00;98205.47;5027211;28;20107;-74
2024/04/13 20:03:50;;;;;;;;;;;;;;;;;;;;;
2024/04/13 20:10:20;;;;;;;;;;;;;;;;;;;;;
2024/04/13 20:13:16;;;;;;;22.13;8.05;;;;;;;17.85;100.00;98207.97;5065098;28;20032;-75
2024/04/13 20:19:07;;;;;;;15.85;8.15;;;;;;;17.70;100.00;98206.50;5088673;28;20046;-74
2024/04/13 20:22:07;;;;;;;15.88;7.63;;;;;;;17.70;100.00;98216.47;5048126;28;20128;-74
2024/04/13 20:25:01;;;;;;;;;;;;;;;;;;;;;
2024/04/13 20:31:24;;;;;;;;;;;;;;;;;;;;;
2024/04/13 20:34:03;;;;;;;10.68;5.22;;;;;;;17.37;100.00;98205.59;5046856;28;20498;-76
2024/04/13 20:37:11;;;;;;;12.52;6.45;;;;;;;17.37;100.00;98219.97;5062159;28;20462;-75
2024/04/13 20:39:54;;;;;;;11.43;6.28;;;;;;;17.22;100.00;98230.16;5061416;28;20039;-75
2024/04/13 20:42:56;;;;;;;11.27;6.57;;;;;;;17.07;100.00;98222.38;5063764;28;20052;-75
2024/04/13 20:45:59;;;;;;;;;;;;;;;;;;;;;
2024/04/13 20:48:56;;;;;;;14.65;6.38;;;;;;;16.97;100.00;98216.81;5068907;28;20044;-76
2024/04/13 20:52:18;;;;;;;9.20;5.60;;;;;;;16.91;100.00;98220.00;5084600;28;20399;-75
2024/04/13 20:55:14;;;;;;;12.52;6.65;;;;;;;16.71;100.00;98226.91;5090652;28;20030;-74
2024/04/13 21:01:17;;;;;;;11.15;6.50;;;;;;;16.58;100.00;98211.75;5072072;28;20151;-75
2024/04/13 21:04:48;;;;;;;11.90;6.35;;;;;;;16.62;100.00;98211.41;5057130;28;20045;-75
2024/04/13 21:07:45;;;;;;;21.77;6.22;;;;;;;16.62;100.00;98199.72;5090192;28;20036;-74
2024/04/13 21:10:35;;;;;;;12.52;6.38;;;;;;;16.65;100.00;98203.06;5068756;28;20484;-74
2024/04/13 21:13:51;;;;;;;16.13;6.83;;;;;;;16.44;100.00;98193.84;5086600;28;20028;-74
2024/04/13 21:16:45;;;;;;;13.25;5.55;;;;;;;16.55;100.00;98190.38;5019206;28;20043;-74
2024/04/13 21:19:36;;;;;;;;;;;;;;;;;;;;;
2024/04/13 21:22:46;;;;;;;;;;;;;;;;;;;;;
2024/04/13 21:29:10;;;;;;;11.90;6.20;;;;;;;16.12;100.00;98211.56;5051639;28;20181;-75
2024/04/13 21:32:19;;;;;;;;;;;;;;;;;;;;;
2024/04/13 21:35:15;;;;;;;14.93;8.65;;;;;;;15.88;100.00;98199.88;5078096;28;20027;-75
2024/04/13 21:38:06;;;;;;;16.40;8.10;;;;;;;15.88;100.00;98202.56;5067194;28;20031;-75
2024/04/13 21:40:56;;;;;;;15.65;8.68;;;;;;;15.88;100.00;98203.44;5078443;28;20111;-75
2024/04/13 21:44:12;;;;;;;20.60;9.10;;;;;;;15.81;100.00;98202.16;5059277;28;20024;-75
2024/04/13 21:50:36;;;;;;;17.98;8.10;;;;;;;15.52;100.00;98201.56;5052899;28;20115;-75
2024/04/13 22:00:04;;;;;;;21.42;8.50;;;;;;;15.41;100.00;98203.28;5016958;28;20116;-74
2024/04/13 22:02:58;;;;;;;16.05;8.20;;;;;;;15.32;100.00;98201.22;5035629;28;20112;-74
2024/04/13 22:05:51;;;;;;;;;;;;;;;;;;;;;
2024/04/13 22:11:55;;;;;;;14.95;7.25;;;;;;;15.06;100.00;98213.81;5075879;28;20127;-73
2024/04/13 22:14:28;;;;;;;15.38;6.80;;;;;;;15.07;100.00;98197.53;5075789;28;20417;-73
2024/04/13 22:17:52;;;;;;;;;;;;;;;;;;;;;
2024/04/13 22:20:53;;;;;;;13.82;6.55;;;;;;;14.94;100.00;98209.28;5045796;28;20041;-73
2024/04/13 22:23:51;;;;;;;;;;;;;;;;;;;;;
2024/04/13 22:26:30;;;;;;;12.13;6.80;;;;;;;14.98;100.00;98198.16;5043771;28;20028;-73
2024/04/13 22:29:33;;;;;;;;;;;;;;;;;;;;;
2024/04/13 22:35:25;;;;;;;12.32;6.70;;;;;;;14.75;100.00;98185.44;5055681;28;20025;-74